Skaelskor, Denmark
Current Conditions -  °F | °C
As of 4:50 PM on Monday 22 Dec 2014 (Local Time) from EKRK Reporting Station
Few Clouds Few Clouds  
Wind Chill: 37°   Ceiling: Unl
Heat Index: 45°   Visibility: 6mi
Dew Point: 41°   Wind: 18mph
Humidity: 87%   Direction: 270°W
Pressure: 29.53"   Gusts: NA
Location:  55.25°N, 11.29°E
Report Text: EKRK 221550Z AUTO 27016KT 9999NDV FEW048/// 07/05 Q1000
Loading
Personal Weather Stations






























Interactive Weather Map New forecast layout! Learn more

10-Day Weather Forecast

Advertisements
Track Severe Weather on mobile